createdAt,value
2018-12-23T00:02:56.080Z,26.3
2018-12-23T00:08:49.976Z,26.3
2018-12-23T00:14:44.077Z,26.4
2018-12-23T00:17:40.947Z,26.5
2018-12-23T00:23:35.025Z,26.5
2018-12-23T00:26:31.955Z,26.6
2018-12-23T00:29:29.002Z,26.6
2018-12-23T00:38:20.033Z,26.8
2018-12-23T00:44:14.009Z,26.8
2018-12-23T01:07:50.337Z,27.3
2018-12-23T01:13:44.259Z,27.4
2018-12-23T01:16:41.075Z,27.4
2018-12-23T01:22:35.095Z,27.5
2018-12-23T01:28:29.050Z,27.6
2018-12-23T01:31:26.081Z,27.6
2018-12-23T01:37:20.175Z,27.8
2018-12-23T01:49:08.563Z,28.1
2018-12-23T01:52:05.114Z,28.2
2018-12-23T01:55:02.160Z,28.2
2018-12-23T01:57:59.103Z,28.3
2018-12-23T02:00:56.162Z,28.3
2018-12-23T02:03:53.177Z,28.2
2018-12-23T02:06:50.149Z,28.2
2018-12-23T02:12:44.164Z,28.2
2018-12-23T02:15:41.135Z,28.2
2018-12-23T02:18:38.143Z,28.1
2018-12-23T02:21:35.191Z,28.1
2018-12-23T02:27:29.160Z,28.4
2018-12-23T02:30:26.127Z,28.4
2018-12-23T02:33:23.165Z,28.4
2018-12-23T02:36:20.173Z,28.4
2018-12-23T02:39:17.732Z,28.4
2018-12-23T02:42:14.142Z,28.4
2018-12-23T02:48:08.232Z,28.6
2018-12-23T02:51:05.165Z,28.7
2018-12-23T02:56:59.329Z,28.8
2018-12-23T02:59:56.199Z,28.9
2018-12-23T03:05:50.304Z,29
2018-12-23T03:11:44.437Z,29.2
2018-12-23T03:14:41.212Z,29.3
2018-12-23T03:17:38.328Z,29.3
2018-12-23T03:20:35.621Z,29.2
2018-12-23T03:23:32.308Z,29.2
2018-12-23T03:26:29.191Z,29.1
2018-12-23T03:29:26.683Z,29
2018-12-23T03:35:20.345Z,29
2018-12-23T03:38:17.259Z,29
2018-12-23T03:41:14.322Z,29.1
2018-12-23T03:47:08.412Z,29.2
2018-12-23T03:53:02.381Z,29.1
2018-12-23T03:55:59.253Z,29.1
2018-12-23T03:58:56.324Z,29.2
2018-12-23T04:01:53.255Z,29.2
2018-12-23T04:07:47.358Z,29.2
2018-12-23T04:10:44.291Z,29.2
2018-12-23T04:13:42.086Z,29.2
2018-12-23T04:16:38.287Z,29.2
2018-12-23T04:22:32.378Z,29.2
2018-12-23T04:28:26.506Z,29.2
2018-12-23T04:37:17.394Z,29.3
2018-12-23T04:40:14.390Z,29.4
2018-12-23T04:43:11.582Z,29.4
2018-12-23T04:46:08.390Z,29.4
2018-12-23T04:49:05.499Z,29.5
2018-12-23T04:52:02.312Z,29.6
2018-12-23T04:54:59.900Z,29.6
2018-12-23T04:57:56.602Z,29.8
2018-12-23T05:00:53.378Z,29.9
2018-12-23T05:06:47.444Z,30
2018-12-23T05:09:44.377Z,30
2018-12-23T05:12:41.862Z,30.2
2018-12-23T05:15:38.374Z,30.3
2018-12-23T05:21:32.425Z,30.5
2018-12-23T05:24:29.398Z,30.6
2018-12-23T05:27:26.440Z,30.7
2018-12-23T05:30:23.429Z,30.8
2018-12-23T05:33:20.437Z,30.9
2018-12-23T05:36:17.467Z,31
2018-12-23T05:42:11.491Z,31.2
2018-12-23T05:45:08.438Z,31.2
2018-12-23T05:48:05.444Z,31.3
2018-12-23T05:51:02.479Z,31.3
2018-12-23T05:53:59.499Z,31.3
2018-12-23T05:56:56.431Z,31.2
2018-12-23T05:59:53.474Z,31.1
2018-12-23T06:02:50.432Z,31.1
2018-12-23T06:05:47.480Z,31.2
2018-12-23T06:08:44.461Z,31.2
2018-12-23T06:11:41.511Z,31.3
2018-12-23T06:17:35.832Z,31.4
2018-12-23T06:20:32.635Z,31.5
2018-12-23T06:23:29.535Z,31.5
2018-12-23T06:26:26.565Z,31.6
2018-12-23T06:29:23.533Z,31.7
2018-12-23T06:32:20.537Z,31.7
2018-12-23T06:35:17.531Z,31.7
2018-12-23T06:38:14.477Z,31.8
2018-12-23T06:41:11.514Z,31.8
2018-12-23T06:44:08.569Z,31.9
2018-12-23T06:47:05.637Z,31.9
2018-12-23T06:52:59.601Z,32
2018-12-23T06:55:56.977Z,32
2018-12-23T06:58:53.532Z,32
2018-12-23T07:01:50.550Z,32
2018-12-23T07:04:47.978Z,32
2018-12-23T07:07:44.552Z,32
2018-12-23T07:13:38.641Z,32.1
2018-12-23T07:16:35.524Z,32.2
2018-12-23T07:19:33.152Z,32.3
2018-12-23T07:25:27.049Z,32.3
2018-12-23T07:28:23.588Z,32.2
2018-12-23T07:31:20.672Z,32.2
2018-12-23T07:34:17.619Z,32.2
2018-12-23T07:37:14.642Z,32.2
2018-12-23T07:40:11.617Z,32.2
2018-12-23T07:43:08.846Z,32.1
2018-12-23T07:46:05.612Z,32
2018-12-23T07:49:02.684Z,32
2018-12-23T07:54:56.736Z,32.1
2018-12-23T08:00:50.636Z,32.2
2018-12-23T08:06:44.693Z,32.1
2018-12-23T08:09:41.693Z,32.1
2018-12-23T08:24:26.891Z,32.3
2018-12-23T08:27:23.710Z,32.2
2018-12-23T08:30:20.692Z,32.3
2018-12-23T08:33:17.648Z,32.2
2018-12-23T08:36:14.725Z,32.2
2018-12-23T08:39:11.709Z,32.2
2018-12-23T08:48:03.181Z,32.1
2018-12-23T08:50:59.684Z,32
2018-12-23T08:53:56.728Z,32
2018-12-23T08:56:54.104Z,32
2018-12-23T09:29:21.210Z,31.7
2018-12-23T09:35:14.828Z,31.6
2018-12-23T09:47:03.281Z,31.7
2018-12-23T09:55:54.261Z,31.5
2018-12-23T09:58:50.787Z,31.5
2018-12-23T10:01:47.836Z,31.5
2018-12-23T10:04:44.823Z,31.4
2018-12-23T10:10:39.304Z,31.2
2018-12-23T10:16:32.894Z,31.1
2018-12-23T10:19:29.812Z,31.1
2018-12-23T10:22:26.896Z,31
2018-12-23T10:25:23.823Z,31
2018-12-23T10:28:21.007Z,30.8
2018-12-23T10:31:17.949Z,30.8
2018-12-23T10:34:14.902Z,30.8
2018-12-23T10:37:11.902Z,30.7
2018-12-23T10:40:08.948Z,30.7
2018-12-23T10:43:06.338Z,30.6
2018-12-23T10:46:03.528Z,30.6
2018-12-23T10:48:59.858Z,30.5
2018-12-23T10:54:53.927Z,30.4
2018-12-23T10:57:50.884Z,30.4
2018-12-23T11:00:47.972Z,30.4
2018-12-23T11:03:44.916Z,30.3
2018-12-23T11:06:42.386Z,30.3
2018-12-23T11:09:39.332Z,30.2
2018-12-23T11:15:32.965Z,30.2
2018-12-23T11:18:30.453Z,30.2
2018-12-23T11:24:24.470Z,30.1
2018-12-23T11:33:15.019Z,30
2018-12-23T11:39:09.001Z,30
2018-12-23T11:45:03.983Z,29.9
2018-12-23T11:47:59.971Z,29.8
2018-12-23T11:50:57.032Z,29.8
2018-12-23T11:56:51.042Z,29.7
2018-12-23T11:59:47.987Z,29.7
2018-12-23T12:05:42.573Z,29.5
2018-12-23T12:08:43.640Z,29.5
2018-12-23T12:14:33.610Z,29.4
2018-12-23T12:17:30.006Z,29.3
2018-12-23T12:20:27.444Z,29.2
2018-12-23T12:23:24.082Z,29.2
2018-12-23T12:26:21.067Z,29.1
2018-12-23T12:29:18.041Z,29.1
2018-12-23T12:35:12.108Z,29.1
2018-12-23T12:41:06.159Z,29
2018-12-23T12:44:03.088Z,29
2018-12-23T12:55:51.131Z,28.8
2018-12-23T12:58:48.061Z,28.8
2018-12-23T13:01:45.134Z,28.7
2018-12-23T13:04:42.066Z,28.7
2018-12-23T13:07:39.115Z,28.7
2018-12-23T13:10:36.088Z,28.7
2018-12-23T13:13:33.338Z,28.7
2018-12-23T13:16:30.111Z,28.7
2018-12-23T13:22:25.134Z,28.6
2018-12-23T13:28:18.331Z,28.6
2018-12-23T13:31:15.134Z,28.5
2018-12-23T13:34:12.234Z,28.4
2018-12-23T13:37:09.128Z,28.4
2018-12-23T13:40:06.246Z,28.4
2018-12-23T13:43:03.541Z,28.4
2018-12-23T13:48:57.225Z,28.4
2018-12-23T13:51:54.359Z,28.4
2018-12-23T13:54:51.338Z,28.3
2018-12-23T13:57:48.202Z,28.3
2018-12-23T14:00:45.676Z,28.3
2018-12-23T14:03:42.192Z,28.2
2018-12-23T14:06:39.735Z,28.2
2018-12-23T14:09:36.638Z,28.2
2018-12-23T14:12:33.363Z,28.2
2018-12-23T14:15:30.236Z,28.2
2018-12-23T14:21:24.703Z,28.2
2018-12-23T14:24:21.193Z,28.1
2018-12-23T14:27:18.196Z,28.1
2018-12-23T14:30:15.275Z,28
2018-12-23T14:36:09.264Z,28
2018-12-23T14:39:06.260Z,28
2018-12-23T14:42:03.724Z,28
2018-12-23T14:45:00.272Z,28
2018-12-23T14:50:54.290Z,28
2018-12-23T14:53:51.305Z,27.9
2018-12-23T14:56:48.295Z,27.9
2018-12-23T14:59:45.264Z,28
2018-12-23T15:02:42.302Z,27.9
2018-12-23T15:05:39.273Z,27.9
2018-12-23T15:08:36.328Z,27.8
2018-12-23T15:11:33.287Z,27.8
2018-12-23T15:14:30.841Z,27.8
2018-12-23T15:17:27.279Z,27.7
2018-12-23T15:20:24.305Z,27.8
2018-12-23T15:23:21.315Z,27.8
2018-12-23T15:26:18.354Z,27.8
2018-12-23T15:29:15.365Z,27.8
2018-12-23T15:32:13.354Z,27.8
2018-12-23T15:35:09.355Z,27.8
2018-12-23T15:38:08.116Z,27.8
2018-12-23T15:44:00.409Z,27.7
2018-12-23T15:46:57.388Z,27.7
2018-12-23T15:49:54.399Z,27.7
2018-12-23T15:52:51.328Z,27.7
2018-12-23T15:55:49.112Z,27.7
2018-12-23T15:58:45.358Z,27.6
2018-12-23T16:13:30.938Z,27.6
2018-12-23T16:16:27.411Z,27.6
2018-12-23T16:22:21.424Z,27.5
2018-12-23T16:25:18.370Z,27.4
2018-12-23T16:28:15.457Z,27.4
2018-12-23T16:34:09.602Z,27.4
2018-12-23T16:40:03.626Z,27.4
2018-12-23T16:43:00.544Z,27.3
2018-12-23T16:48:54.920Z,27.3
2018-12-23T16:54:48.476Z,27.2
2018-12-23T16:57:45.417Z,27.3
2018-12-23T17:00:42.477Z,27.3
2018-12-23T17:03:39.446Z,27.3
2018-12-23T17:06:36.657Z,27.3
2018-12-23T17:09:33.872Z,27.3
2018-12-23T17:12:30.873Z,27.3
2018-12-23T17:21:21.993Z,27.3
2018-12-23T17:27:15.924Z,27.2
2018-12-23T17:30:12.477Z,27.2
2018-12-23T17:36:06.529Z,27.2
2018-12-23T17:42:00.517Z,27.2
2018-12-23T17:44:57.456Z,27.2
2018-12-23T17:47:54.504Z,27.2
2018-12-23T17:53:48.533Z,27.2
2018-12-23T17:56:45.471Z,27.1
2018-12-23T17:59:42.743Z,27.1
2018-12-23T18:02:39.513Z,27
2018-12-23T18:05:37.008Z,27
2018-12-23T18:08:33.542Z,27
2018-12-23T18:11:30.575Z,27
2018-12-23T18:14:27.524Z,27
2018-12-23T18:17:25.055Z,27
2018-12-23T18:20:21.934Z,27
2018-12-23T18:23:18.996Z,27
2018-12-23T18:26:15.524Z,27
2018-12-23T18:29:12.549Z,27
2018-12-23T18:32:09.536Z,27
2018-12-23T18:35:06.579Z,27
2018-12-23T18:38:03.565Z,27
2018-12-23T18:41:00.701Z,27.1
2018-12-23T18:43:58.051Z,27.1
2018-12-23T18:46:54.999Z,27
2018-12-23T18:49:51.529Z,27
2018-12-23T18:52:48.602Z,27
2018-12-23T18:58:42.610Z,27
2018-12-23T19:01:39.543Z,27
2018-12-23T19:04:36.637Z,27
2018-12-23T19:07:33.590Z,27
2018-12-23T19:10:31.135Z,27
2018-12-23T19:13:27.965Z,27
2018-12-23T19:16:24.643Z,27
2018-12-23T19:22:19.026Z,27
2018-12-23T19:25:15.599Z,27
2018-12-23T19:28:12.691Z,26.9
2018-12-23T19:37:03.855Z,27
2018-12-23T19:40:00.627Z,27
2018-12-23T19:42:58.143Z,26.9
2018-12-23T19:45:54.631Z,26.9
2018-12-23T19:48:52.085Z,26.9
2018-12-23T19:51:48.650Z,26.9
2018-12-23T19:54:45.705Z,26.9
2018-12-23T19:57:42.674Z,26.9
2018-12-23T20:00:39.709Z,26.9
2018-12-23T20:03:36.645Z,27
2018-12-23T20:06:34.259Z,27
2018-12-23T20:09:30.670Z,27
2018-12-23T20:12:28.128Z,26.9
2018-12-23T20:15:24.676Z,26.9
2018-12-23T20:18:21.763Z,26.9
2018-12-23T20:24:16.120Z,26.9
2018-12-23T20:27:12.955Z,26.9
2018-12-23T20:30:09.922Z,26.9
2018-12-23T20:33:06.846Z,27
2018-12-23T20:36:04.709Z,27
2018-12-23T20:41:58.522Z,27
2018-12-23T20:44:55.155Z,27
2018-12-23T20:47:51.861Z,27
2018-12-23T20:53:46.096Z,27
2018-12-23T20:56:42.736Z,27
2018-12-23T20:59:39.776Z,27
2018-12-23T21:08:31.280Z,27
2018-12-23T21:11:28.135Z,27
2018-12-23T21:14:24.853Z,26.9
2018-12-23T21:17:22.164Z,26.9
2018-12-23T21:20:18.851Z,26.9
2018-12-23T21:23:15.796Z,26.9
2018-12-23T21:26:12.947Z,26.9
2018-12-23T21:29:09.789Z,26.8
2018-12-23T21:32:07.492Z,26.8
2018-12-23T21:35:04.214Z,26.9
2018-12-23T21:38:00.835Z,26.9
2018-12-23T21:40:58.218Z,26.9
2018-12-23T21:49:48.920Z,26.9
2018-12-23T21:52:45.802Z,26.9
2018-12-23T21:55:42.845Z,26.9
2018-12-23T21:58:39.811Z,26.8
2018-12-23T22:01:37.325Z,26.8
2018-12-23T22:04:34.254Z,26.9
2018-12-23T22:07:30.857Z,26.9
2018-12-23T22:13:25.394Z,27
2018-12-23T22:16:21.839Z,27
2018-12-23T22:19:19.074Z,26.9
2018-12-23T22:25:12.995Z,26.9
2018-12-23T22:28:09.896Z,26.9
2018-12-23T22:39:58.931Z,26.9
2018-12-23T22:42:54.998Z,27
2018-12-23T22:45:52.597Z,27
2018-12-23T22:48:48.884Z,27
2018-12-23T22:54:42.942Z,27
2018-12-23T22:57:40.065Z,27
2018-12-23T23:06:31.507Z,27
2018-12-23T23:09:27.916Z,27
2018-12-23T23:12:25.071Z,27
2018-12-23T23:15:21.950Z,27
2018-12-23T23:18:19.051Z,27
2018-12-23T23:24:13.535Z,27
2018-12-23T23:27:10.179Z,27.1
2018-12-23T23:30:06.974Z,27
2018-12-23T23:33:04.060Z,27
2018-12-23T23:36:01.527Z,27.1
2018-12-23T23:38:58.365Z,27.1
2018-12-23T23:41:58.383Z,27.1
2018-12-23T23:44:52.008Z,27.1
2018-12-23T23:53:43.597Z,27.1
2018-12-23T23:56:40.390Z,27.1
2018-12-23T23:59:37.213Z,27.1
